sensor_id;sensor_type;location;lat;lon;timestamp;P1;durP1;ratioP1;P2;durP2;ratioP2
6133;SDS011;3098;42.678;23.364;2022-07-30T00:00:49;5.43;;;3.90;;
6133;SDS011;3098;42.678;23.364;2022-07-30T00:03:17;5.63;;;4.18;;
6133;SDS011;3098;42.678;23.364;2022-07-30T00:05:44;5.40;;;4.18;;
6133;SDS011;3098;42.678;23.364;2022-07-30T00:08:11;7.25;;;4.03;;
6133;SDS011;3098;42.678;23.364;2022-07-30T00:10:38;18.00;;;4.32;;
6133;SDS011;3098;42.678;23.364;2022-07-30T00:13:06;5.28;;;4.20;;
6133;SDS011;3098;42.678;23.364;2022-07-30T00:15:32;12.45;;;4.88;;
6133;SDS011;3098;42.678;23.364;2022-07-30T00:17:59;11.65;;;7.03;;
6133;SDS011;3098;42.678;23.364;2022-07-30T00:20:28;23.20;;;13.80;;
6133;SDS011;3098;42.678;23.364;2022-07-30T00:22:55;28.50;;;14.48;;
6133;SDS011;3098;42.678;23.364;2022-07-30T00:25:22;23.77;;;13.05;;
6133;SDS011;3098;42.678;23.364;2022-07-30T00:27:49;24.48;;;11.50;;
6133;SDS011;3098;42.678;23.364;2022-07-30T00:30:16;15.20;;;9.35;;
6133;SDS011;3098;42.678;23.364;2022-07-30T00:32:43;12.52;;;7.75;;
6133;SDS011;3098;42.678;23.364;2022-07-30T00:35:11;15.98;;;7.47;;
6133;SDS011;3098;42.678;23.364;2022-07-30T00:37:39;11.68;;;7.10;;
6133;SDS011;3098;42.678;23.364;2022-07-30T00:40:07;13.65;;;6.22;;
6133;SDS011;3098;42.678;23.364;2022-07-30T00:42:38;10.80;;;5.68;;
6133;SDS011;3098;42.678;23.364;2022-07-30T00:45:06;6.15;;;4.72;;
6133;SDS011;3098;42.678;23.364;2022-07-30T00:47:35;6.35;;;4.90;;
6133;SDS011;3098;42.678;23.364;2022-07-30T00:50:02;7.72;;;4.97;;
6133;SDS011;3098;42.678;23.364;2022-07-30T00:52:31;6.07;;;4.07;;
6133;SDS011;3098;42.678;23.364;2022-07-30T00:55:00;9.13;;;5.18;;
6133;SDS011;3098;42.678;23.364;2022-07-30T00:57:27;8.48;;;4.90;;
6133;SDS011;3098;42.678;23.364;2022-07-30T00:59:54;6.47;;;4.60;;
6133;SDS011;3098;42.678;23.364;2022-07-30T01:02:21;6.78;;;4.30;;
6133;SDS011;3098;42.678;23.364;2022-07-30T01:04:49;7.00;;;4.88;;
6133;SDS011;3098;42.678;23.364;2022-07-30T01:07:16;8.88;;;4.50;;
6133;SDS011;3098;42.678;23.364;2022-07-30T01:09:42;8.75;;;4.55;;
6133;SDS011;3098;42.678;23.364;2022-07-30T01:12:11;4.60;;;4.00;;
6133;SDS011;3098;42.678;23.364;2022-07-30T01:14:41;6.38;;;4.57;;
6133;SDS011;3098;42.678;23.364;2022-07-30T01:17:10;5.30;;;4.47;;
6133;SDS011;3098;42.678;23.364;2022-07-30T01:19:38;9.18;;;4.85;;
6133;SDS011;3098;42.678;23.364;2022-07-30T01:22:28;6.18;;;4.43;;
6133;SDS011;3098;42.678;23.364;2022-07-30T01:25:03;10.15;;;4.60;;
6133;SDS011;3098;42.678;23.364;2022-07-30T01:27:37;6.10;;;4.57;;
6133;SDS011;3098;42.678;23.364;2022-07-30T01:30:08;5.55;;;4.43;;
6133;SDS011;3098;42.678;23.364;2022-07-30T01:32:38;7.45;;;4.63;;
6133;SDS011;3098;42.678;23.364;2022-07-30T01:35:08;7.20;;;5.05;;
6133;SDS011;3098;42.678;23.364;2022-07-30T01:37:37;6.47;;;4.22;;
6133;SDS011;3098;42.678;23.364;2022-07-30T01:40:06;6.53;;;4.78;;
6133;SDS011;3098;42.678;23.364;2022-07-30T01:42:34;5.53;;;4.50;;
6133;SDS011;3098;42.678;23.364;2022-07-30T01:45:04;5.43;;;4.65;;
6133;SDS011;3098;42.678;23.364;2022-07-30T01:47:33;6.32;;;4.30;;
6133;SDS011;3098;42.678;23.364;2022-07-30T01:50:02;7.60;;;4.80;;
6133;SDS011;3098;42.678;23.364;2022-07-30T01:52:33;8.68;;;4.93;;
6133;SDS011;3098;42.678;23.364;2022-07-30T01:55:03;6.75;;;4.65;;
6133;SDS011;3098;42.678;23.364;2022-07-30T01:57:32;7.28;;;4.50;;
6133;SDS011;3098;42.678;23.364;2022-07-30T02:00:05;6.50;;;4.68;;
6133;SDS011;3098;42.678;23.364;2022-07-30T02:02:34;10.50;;;4.70;;
6133;SDS011;3098;42.678;23.364;2022-07-30T02:05:03;6.93;;;4.72;;
6133;SDS011;3098;42.678;23.364;2022-07-30T02:07:32;7.47;;;4.88;;
6133;SDS011;3098;42.678;23.364;2022-07-30T02:10:06;5.88;;;4.70;;
6133;SDS011;3098;42.678;23.364;2022-07-30T02:12:39;5.90;;;4.57;;
6133;SDS011;3098;42.678;23.364;2022-07-30T02:15:15;5.95;;;4.38;;
6133;SDS011;3098;42.678;23.364;2022-07-30T02:17:48;8.52;;;4.78;;
6133;SDS011;3098;42.678;23.364;2022-07-30T02:20:21;7.22;;;4.25;;
6133;SDS011;3098;42.678;23.364;2022-07-30T02:22:50;12.23;;;4.53;;
6133;SDS011;3098;42.678;23.364;2022-07-30T02:25:22;10.05;;;5.18;;
6133;SDS011;3098;42.678;23.364;2022-07-30T02:27:51;7.13;;;4.88;;
6133;SDS011;3098;42.678;23.364;2022-07-30T02:30:24;9.10;;;4.38;;
6133;SDS011;3098;42.678;23.364;2022-07-30T02:32:54;6.20;;;4.45;;
6133;SDS011;3098;42.678;23.364;2022-07-30T02:35:25;6.22;;;4.68;;
6133;SDS011;3098;42.678;23.364;2022-07-30T02:37:55;9.32;;;4.80;;
6133;SDS011;3098;42.678;23.364;2022-07-30T02:40:25;8.48;;;5.05;;
6133;SDS011;3098;42.678;23.364;2022-07-30T02:42:53;7.20;;;4.60;;
6133;SDS011;3098;42.678;23.364;2022-07-30T02:45:21;6.05;;;4.80;;
6133;SDS011;3098;42.678;23.364;2022-07-30T02:47:51;5.63;;;4.63;;
6133;SDS011;3098;42.678;23.364;2022-07-30T02:50:21;6.00;;;4.85;;
6133;SDS011;3098;42.678;23.364;2022-07-30T02:52:50;7.28;;;4.85;;
6133;SDS011;3098;42.678;23.364;2022-07-30T02:55:18;8.55;;;5.07;;
6133;SDS011;3098;42.678;23.364;2022-07-30T02:57:48;7.35;;;4.82;;
6133;SDS011;3098;42.678;23.364;2022-07-30T03:00:18;7.47;;;5.47;;
6133;SDS011;3098;42.678;23.364;2022-07-30T03:02:48;9.00;;;4.78;;
6133;SDS011;3098;42.678;23.364;2022-07-30T03:05:17;7.28;;;5.28;;
6133;SDS011;3098;42.678;23.364;2022-07-30T03:07:44;11.85;;;4.45;;
6133;SDS011;3098;42.678;23.364;2022-07-30T03:10:12;6.75;;;5.20;;
6133;SDS011;3098;42.678;23.364;2022-07-30T03:12:43;6.53;;;5.30;;
6133;SDS011;3098;42.678;23.364;2022-07-30T03:15:11;8.60;;;5.20;;
6133;SDS011;3098;42.678;23.364;2022-07-30T03:17:41;6.90;;;5.30;;
6133;SDS011;3098;42.678;23.364;2022-07-30T03:20:12;9.63;;;5.07;;
6133;SDS011;3098;42.678;23.364;2022-07-30T03:22:42;8.00;;;4.80;;
6133;SDS011;3098;42.678;23.364;2022-07-30T03:25:13;7.30;;;5.10;;
6133;SDS011;3098;42.678;23.364;2022-07-30T03:27:42;7.57;;;5.07;;
6133;SDS011;3098;42.678;23.364;2022-07-30T03:30:11;8.18;;;5.07;;
6133;SDS011;3098;42.678;23.364;2022-07-30T03:32:38;7.40;;;5.28;;
6133;SDS011;3098;42.678;23.364;2022-07-30T03:35:07;9.30;;;5.45;;
6133;SDS011;3098;42.678;23.364;2022-07-30T03:37:37;13.32;;;5.60;;
6133;SDS011;3098;42.678;23.364;2022-07-30T03:40:06;11.68;;;5.60;;
6133;SDS011;3098;42.678;23.364;2022-07-30T03:42:34;9.27;;;5.60;;
6133;SDS011;3098;42.678;23.364;2022-07-30T03:45:02;8.30;;;5.30;;
6133;SDS011;3098;42.678;23.364;2022-07-30T03:47:31;9.23;;;5.38;;
6133;SDS011;3098;42.678;23.364;2022-07-30T03:49:59;10.93;;;5.05;;
6133;SDS011;3098;42.678;23.364;2022-07-30T03:52:27;11.45;;;5.45;;
6133;SDS011;3098;42.678;23.364;2022-07-30T03:54:56;8.45;;;5.63;;
6133;SDS011;3098;42.678;23.364;2022-07-30T03:57:24;8.45;;;5.57;;
6133;SDS011;3098;42.678;23.364;2022-07-30T03:59:51;6.90;;;5.38;;
6133;SDS011;3098;42.678;23.364;2022-07-30T04:02:19;8.32;;;6.22;;
6133;SDS011;3098;42.678;23.364;2022-07-30T04:04:46;13.48;;;6.07;;
6133;SDS011;3098;42.678;23.364;2022-07-30T04:07:13;11.82;;;5.68;;
6133;SDS011;3098;42.678;23.364;2022-07-30T04:09:40;11.60;;;5.47;;
6133;SDS011;3098;42.678;23.364;2022-07-30T04:12:09;8.10;;;5.68;;
6133;SDS011;3098;42.678;23.364;2022-07-30T04:14:38;8.45;;;6.05;;
6133;SDS011;3098;42.678;23.364;2022-07-30T04:17:07;10.05;;;6.07;;
6133;SDS011;3098;42.678;23.364;2022-07-30T04:19:39;10.73;;;6.70;;
6133;SDS011;3098;42.678;23.364;2022-07-30T04:22:12;11.50;;;6.32;;
6133;SDS011;3098;42.678;23.364;2022-07-30T04:24:45;10.70;;;7.30;;
6133;SDS011;3098;42.678;23.364;2022-07-30T04:27:14;11.65;;;7.47;;
6133;SDS011;3098;42.678;23.364;2022-07-30T04:29:43;9.25;;;6.55;;
6133;SDS011;3098;42.678;23.364;2022-07-30T04:32:11;16.27;;;7.30;;
6133;SDS011;3098;42.678;23.364;2022-07-30T04:34:44;11.68;;;6.68;;
6133;SDS011;3098;42.678;23.364;2022-07-30T04:37:11;12.30;;;6.72;;
6133;SDS011;3098;42.678;23.364;2022-07-30T04:39:40;9.68;;;6.32;;
6133;SDS011;3098;42.678;23.364;2022-07-30T04:42:07;17.35;;;8.20;;
6133;SDS011;3098;42.678;23.364;2022-07-30T04:44:35;15.50;;;7.80;;
6133;SDS011;3098;42.678;23.364;2022-07-30T04:47:04;9.70;;;7.53;;
6133;SDS011;3098;42.678;23.364;2022-07-30T04:49:31;11.40;;;7.30;;
6133;SDS011;3098;42.678;23.364;2022-07-30T04:51:59;9.07;;;6.65;;
6133;SDS011;3098;42.678;23.364;2022-07-30T04:54:28;10.23;;;7.70;;
6133;SDS011;3098;42.678;23.364;2022-07-30T04:57:03;9.70;;;7.35;;
6133;SDS011;3098;42.678;23.364;2022-07-30T04:59:31;9.52;;;6.25;;
6133;SDS011;3098;42.678;23.364;2022-07-30T05:02:03;10.77;;;7.05;;
6133;SDS011;3098;42.678;23.364;2022-07-30T05:04:33;7.93;;;5.95;;
6133;SDS011;3098;42.678;23.364;2022-07-30T05:07:01;8.68;;;7.00;;
6133;SDS011;3098;42.678;23.364;2022-07-30T05:09:29;7.65;;;5.88;;
6133;SDS011;3098;42.678;23.364;2022-07-30T05:12:07;7.93;;;5.78;;
6133;SDS011;3098;42.678;23.364;2022-07-30T05:14:35;8.65;;;6.65;;
6133;SDS011;3098;42.678;23.364;2022-07-30T05:17:03;12.38;;;6.97;;
6133;SDS011;3098;42.678;23.364;2022-07-30T05:19:31;10.90;;;6.45;;
6133;SDS011;3098;42.678;23.364;2022-07-30T05:21:58;10.73;;;7.13;;
6133;SDS011;3098;42.678;23.364;2022-07-30T05:24:26;9.25;;;6.15;;
6133;SDS011;3098;42.678;23.364;2022-07-30T05:26:53;9.10;;;6.47;;
6133;SDS011;3098;42.678;23.364;2022-07-30T05:29:20;9.80;;;6.35;;
6133;SDS011;3098;42.678;23.364;2022-07-30T05:31:57;17.13;;;6.45;;
6133;SDS011;3098;42.678;23.364;2022-07-30T05:34:28;13.68;;;6.47;;
6133;SDS011;3098;42.678;23.364;2022-07-30T05:36:55;14.18;;;5.68;;
6133;SDS011;3098;42.678;23.364;2022-07-30T05:39:32;12.88;;;7.13;;
6133;SDS011;3098;42.678;23.364;2022-07-30T05:41:59;14.25;;;8.10;;
6133;SDS011;3098;42.678;23.364;2022-07-30T05:44:26;20.52;;;8.45;;
6133;SDS011;3098;42.678;23.364;2022-07-30T05:46:53;13.32;;;6.20;;
6133;SDS011;3098;42.678;23.364;2022-07-30T05:49:21;13.73;;;7.35;;
6133;SDS011;3098;42.678;23.364;2022-07-30T05:51:49;17.75;;;7.97;;
6133;SDS011;3098;42.678;23.364;2022-07-30T05:54:16;15.98;;;7.43;;
6133;SDS011;3098;42.678;23.364;2022-07-30T05:56:43;7.63;;;6.00;;
6133;SDS011;3098;42.678;23.364;2022-07-30T05:59:12;11.30;;;7.47;;
6133;SDS011;3098;42.678;23.364;2022-07-30T06:01:39;9.30;;;6.45;;
6133;SDS011;3098;42.678;23.364;2022-07-30T06:04:07;11.25;;;6.65;;
6133;SDS011;3098;42.678;23.364;2022-07-30T06:06:34;11.10;;;6.22;;
6133;SDS011;3098;42.678;23.364;2022-07-30T06:09:17;12.52;;;6.38;;
6133;SDS011;3098;42.678;23.364;2022-07-30T06:11:44;12.95;;;6.18;;
6133;SDS011;3098;42.678;23.364;2022-07-30T06:14:11;7.35;;;6.13;;
6133;SDS011;3098;42.678;23.364;2022-07-30T06:16:38;13.25;;;6.72;;
6133;SDS011;3098;42.678;23.364;2022-07-30T06:19:05;12.60;;;6.50;;
6133;SDS011;3098;42.678;23.364;2022-07-30T06:21:32;13.95;;;7.85;;
6133;SDS011;3098;42.678;23.364;2022-07-30T06:23:59;10.15;;;6.45;;
6133;SDS011;3098;42.678;23.364;2022-07-30T06:26:29;8.77;;;6.38;;
6133;SDS011;3098;42.678;23.364;2022-07-30T06:28:56;9.85;;;5.35;;
6133;SDS011;3098;42.678;23.364;2022-07-30T06:31:23;8.60;;;5.43;;
6133;SDS011;3098;42.678;23.364;2022-07-30T06:33:50;6.10;;;4.78;;
6133;SDS011;3098;42.678;23.364;2022-07-30T06:36:17;7.57;;;5.07;;
6133;SDS011;3098;42.678;23.364;2022-07-30T06:38:45;8.05;;;5.40;;
6133;SDS011;3098;42.678;23.364;2022-07-30T06:41:12;6.38;;;5.30;;
6133;SDS011;3098;42.678;23.364;2022-07-30T06:43:41;10.35;;;5.85;;
6133;SDS011;3098;42.678;23.364;2022-07-30T06:46:08;10.60;;;5.25;;
6133;SDS011;3098;42.678;23.364;2022-07-30T06:48:35;9.77;;;6.18;;
6133;SDS011;3098;42.678;23.364;2022-07-30T06:51:02;6.70;;;4.75;;
6133;SDS011;3098;42.678;23.364;2022-07-30T06:53:29;9.70;;;5.95;;
6133;SDS011;3098;42.678;23.364;2022-07-30T06:55:56;12.15;;;6.65;;
6133;SDS011;3098;42.678;23.364;2022-07-30T06:58:24;7.07;;;5.82;;
6133;SDS011;3098;42.678;23.364;2022-07-30T07:00:52;6.00;;;4.90;;
6133;SDS011;3098;42.678;23.364;2022-07-30T07:03:19;9.63;;;5.95;;
6133;SDS011;3098;42.678;23.364;2022-07-30T07:05:46;7.82;;;5.28;;
6133;SDS011;3098;42.678;23.364;2022-07-30T07:08:14;6.57;;;4.88;;
6133;SDS011;3098;42.678;23.364;2022-07-30T07:10:40;8.45;;;5.15;;
6133;SDS011;3098;42.678;23.364;2022-07-30T07:13:08;7.35;;;5.05;;
6133;SDS011;3098;42.678;23.364;2022-07-30T07:15:34;9.70;;;5.50;;
6133;SDS011;3098;42.678;23.364;2022-07-30T07:18:03;8.18;;;5.00;;
6133;SDS011;3098;42.678;23.364;2022-07-30T07:20:31;14.27;;;6.50;;
6133;SDS011;3098;42.678;23.364;2022-07-30T07:22:58;5.80;;;4.97;;
6133;SDS011;3098;42.678;23.364;2022-07-30T07:25:25;9.63;;;5.40;;
6133;SDS011;3098;42.678;23.364;2022-07-30T07:27:52;10.38;;;5.00;;
6133;SDS011;3098;42.678;23.364;2022-07-30T07:30:19;8.70;;;5.43;;
6133;SDS011;3098;42.678;23.364;2022-07-30T07:32:46;9.95;;;5.30;;
6133;SDS011;3098;42.678;23.364;2022-07-30T07:35:15;6.63;;;4.95;;
6133;SDS011;3098;42.678;23.364;2022-07-30T07:37:43;5.88;;;4.93;;
6133;SDS011;3098;42.678;23.364;2022-07-30T07:40:10;6.00;;;4.90;;
6133;SDS011;3098;42.678;23.364;2022-07-30T07:42:37;6.28;;;5.00;;
6133;SDS011;3098;42.678;23.364;2022-07-30T07:45:04;5.35;;;4.47;;
6133;SDS011;3098;42.678;23.364;2022-07-30T07:47:41;8.13;;;5.00;;
6133;SDS011;3098;42.678;23.364;2022-07-30T07:50:08;6.15;;;4.70;;
6133;SDS011;3098;42.678;23.364;2022-07-30T07:52:37;8.35;;;5.15;;
6133;SDS011;3098;42.678;23.364;2022-07-30T07:55:05;9.52;;;5.00;;
6133;SDS011;3098;42.678;23.364;2022-07-30T07:57:36;10.38;;;5.00;;
6133;SDS011;3098;42.678;23.364;2022-07-30T08:00:04;5.75;;;4.82;;
6133;SDS011;3098;42.678;23.364;2022-07-30T08:02:33;9.02;;;5.40;;
6133;SDS011;3098;42.678;23.364;2022-07-30T08:05:00;8.50;;;5.10;;
6133;SDS011;3098;42.678;23.364;2022-07-30T08:07:28;7.22;;;5.10;;
6133;SDS011;3098;42.678;23.364;2022-07-30T08:09:57;8.45;;;4.70;;
6133;SDS011;3098;42.678;23.364;2022-07-30T08:12:24;6.28;;;5.28;;
6133;SDS011;3098;42.678;23.364;2022-07-30T08:14:52;9.07;;;5.13;;
6133;SDS011;3098;42.678;23.364;2022-07-30T08:17:19;7.07;;;5.10;;
6133;SDS011;3098;42.678;23.364;2022-07-30T08:19:47;7.55;;;4.72;;
6133;SDS011;3098;42.678;23.364;2022-07-30T08:22:14;6.28;;;4.30;;
6133;SDS011;3098;42.678;23.364;2022-07-30T08:24:41;6.93;;;5.38;;
6133;SDS011;3098;42.678;23.364;2022-07-30T08:27:09;8.70;;;4.72;;
6133;SDS011;3098;42.678;23.364;2022-07-30T08:29:36;6.75;;;5.43;;
6133;SDS011;3098;42.678;23.364;2022-07-30T08:32:03;7.53;;;5.22;;
6133;SDS011;3098;42.678;23.364;2022-07-30T08:34:31;8.02;;;4.90;;
6133;SDS011;3098;42.678;23.364;2022-07-30T08:36:58;8.57;;;4.60;;
6133;SDS011;3098;42.678;23.364;2022-07-30T08:39:25;9.43;;;5.47;;
6133;SDS011;3098;42.678;23.364;2022-07-30T08:41:52;5.15;;;4.65;;
6133;SDS011;3098;42.678;23.364;2022-07-30T08:44:21;6.90;;;4.80;;
6133;SDS011;3098;42.678;23.364;2022-07-30T08:46:52;6.55;;;5.35;;
6133;SDS011;3098;42.678;23.364;2022-07-30T08:49:22;6.72;;;4.75;;
6133;SDS011;3098;42.678;23.364;2022-07-30T08:51:49;7.40;;;5.32;;
6133;SDS011;3098;42.678;23.364;2022-07-30T08:54:17;6.47;;;5.03;;
6133;SDS011;3098;42.678;23.364;2022-07-30T08:56:44;9.95;;;5.30;;
6133;SDS011;3098;42.678;23.364;2022-07-30T08:59:13;6.32;;;4.47;;
6133;SDS011;3098;42.678;23.364;2022-07-30T09:01:43;6.47;;;5.72;;
6133;SDS011;3098;42.678;23.364;2022-07-30T09:04:10;10.60;;;8.60;;
6133;SDS011;3098;42.678;23.364;2022-07-30T09:06:38;12.90;;;9.00;;
6133;SDS011;3098;42.678;23.364;2022-07-30T09:09:05;10.70;;;8.30;;
6133;SDS011;3098;42.678;23.364;2022-07-30T09:11:32;7.45;;;6.30;;
6133;SDS011;3098;42.678;23.364;2022-07-30T09:14:06;7.97;;;5.15;;
6133;SDS011;3098;42.678;23.364;2022-07-30T09:16:35;6.65;;;5.22;;
6133;SDS011;3098;42.678;23.364;2022-07-30T09:19:12;5.55;;;4.82;;
6133;SDS011;3098;42.678;23.364;2022-07-30T09:21:40;8.75;;;5.10;;
6133;SDS011;3098;42.678;23.364;2022-07-30T09:24:11;5.60;;;4.97;;
6133;SDS011;3098;42.678;23.364;2022-07-30T09:26:52;7.22;;;4.85;;
6133;SDS011;3098;42.678;23.364;2022-07-30T09:29:20;10.48;;;5.63;;
6133;SDS011;3098;42.678;23.364;2022-07-30T09:31:52;11.90;;;5.40;;
6133;SDS011;3098;42.678;23.364;2022-07-30T09:34:27;6.78;;;4.85;;
6133;SDS011;3098;42.678;23.364;2022-07-30T09:36:56;7.90;;;5.38;;
6133;SDS011;3098;42.678;23.364;2022-07-30T09:39:27;6.93;;;4.80;;
6133;SDS011;3098;42.678;23.364;2022-07-30T09:41:55;9.85;;;5.10;;
6133;SDS011;3098;42.678;23.364;2022-07-30T09:44:23;5.80;;;4.72;;
6133;SDS011;3098;42.678;23.364;2022-07-30T09:46:51;7.57;;;4.97;;
6133;SDS011;3098;42.678;23.364;2022-07-30T09:49:18;6.78;;;4.95;;
6133;SDS011;3098;42.678;23.364;2022-07-30T09:51:48;7.13;;;5.15;;
6133;SDS011;3098;42.678;23.364;2022-07-30T09:54:17;6.65;;;5.30;;
6133;SDS011;3098;42.678;23.364;2022-07-30T09:56:44;7.65;;;5.07;;
6133;SDS011;3098;42.678;23.364;2022-07-30T10:01:53;6.20;;;4.70;;
6133;SDS011;3098;42.678;23.364;2022-07-30T10:04:24;5.65;;;5.00;;
6133;SDS011;3098;42.678;23.364;2022-07-30T10:06:54;5.38;;;4.50;;
6133;SDS011;3098;42.678;23.364;2022-07-30T10:09:26;4.88;;;4.40;;
6133;SDS011;3098;42.678;23.364;2022-07-30T10:11:54;8.73;;;5.93;;
6133;SDS011;3098;42.678;23.364;2022-07-30T10:14:24;6.30;;;5.03;;
6133;SDS011;3098;42.678;23.364;2022-07-30T10:16:54;5.95;;;4.90;;
6133;SDS011;3098;42.678;23.364;2022-07-30T10:19:22;5.63;;;5.07;;
6133;SDS011;3098;42.678;23.364;2022-07-30T10:21:50;5.72;;;5.13;;
6133;SDS011;3098;42.678;23.364;2022-07-30T10:24:22;8.63;;;5.40;;
6133;SDS011;3098;42.678;23.364;2022-07-30T10:26:51;9.23;;;5.30;;
6133;SDS011;3098;42.678;23.364;2022-07-30T10:29:20;6.55;;;5.40;;
6133;SDS011;3098;42.678;23.364;2022-07-30T10:31:47;6.30;;;5.70;;
6133;SDS011;3098;42.678;23.364;2022-07-30T10:34:15;7.22;;;5.78;;
6133;SDS011;3098;42.678;23.364;2022-07-30T10:36:44;6.60;;;5.90;;
6133;SDS011;3098;42.678;23.364;2022-07-30T10:39:14;10.05;;;6.38;;
6133;SDS011;3098;42.678;23.364;2022-07-30T10:41:55;13.05;;;7.45;;
6133;SDS011;3098;42.678;23.364;2022-07-30T10:44:42;12.38;;;7.13;;
6133;SDS011;3098;42.678;23.364;2022-07-30T10:47:21;10.48;;;8.48;;
6133;SDS011;3098;42.678;23.364;2022-07-30T10:52:48;7.97;;;6.60;;
6133;SDS011;3098;42.678;23.364;2022-07-30T10:55:17;7.25;;;6.53;;
6133;SDS011;3098;42.678;23.364;2022-07-30T10:58:02;6.70;;;6.00;;
6133;SDS011;3098;42.678;23.364;2022-07-30T11:00:31;12.00;;;6.97;;
6133;SDS011;3098;42.678;23.364;2022-07-30T11:03:16;10.35;;;7.18;;
6133;SDS011;3098;42.678;23.364;2022-07-30T11:05:48;9.27;;;7.40;;
6133;SDS011;3098;42.678;23.364;2022-07-30T11:08:33;10.25;;;7.90;;
6133;SDS011;3098;42.678;23.364;2022-07-30T11:11:03;13.55;;;8.30;;
6133;SDS011;3098;42.678;23.364;2022-07-30T11:13:52;10.77;;;8.63;;
6133;SDS011;3098;42.678;23.364;2022-07-30T11:16:21;11.70;;;8.55;;
6133;SDS011;3098;42.678;23.364;2022-07-30T11:19:01;8.35;;;7.05;;
6133;SDS011;3098;42.678;23.364;2022-07-30T11:21:29;9.38;;;6.75;;
6133;SDS011;3098;42.678;23.364;2022-07-30T11:23:57;6.88;;;6.25;;
6133;SDS011;3098;42.678;23.364;2022-07-30T11:29:36;10.35;;;7.97;;
6133;SDS011;3098;42.678;23.364;2022-07-30T11:37:55;8.55;;;7.45;;
6133;SDS011;3098;42.678;23.364;2022-07-30T11:40:27;8.48;;;6.43;;
6133;SDS011;3098;42.678;23.364;2022-07-30T11:43:14;7.18;;;6.45;;
6133;SDS011;3098;42.678;23.364;2022-07-30T11:45:45;7.72;;;6.60;;
6133;SDS011;3098;42.678;23.364;2022-07-30T11:48:14;8.18;;;6.72;;
6133;SDS011;3098;42.678;23.364;2022-07-30T11:50:42;9.52;;;7.10;;
6133;SDS011;3098;42.678;23.364;2022-07-30T11:53:12;11.23;;;7.80;;
6133;SDS011;3098;42.678;23.364;2022-07-30T11:55:41;10.43;;;7.32;;
6133;SDS011;3098;42.678;23.364;2022-07-30T11:58:09;10.13;;;7.60;;
6133;SDS011;3098;42.678;23.364;2022-07-30T12:00:49;9.65;;;8.30;;
6133;SDS011;3098;42.678;23.364;2022-07-30T12:03:17;8.32;;;7.50;;
6133;SDS011;3098;42.678;23.364;2022-07-30T12:05:46;16.88;;;7.85;;
6133;SDS011;3098;42.678;23.364;2022-07-30T12:08:14;11.68;;;8.15;;
6133;SDS011;3098;42.678;23.364;2022-07-30T12:10:43;8.88;;;7.50;;
6133;SDS011;3098;42.678;23.364;2022-07-30T12:13:20;10.18;;;7.32;;
6133;SDS011;3098;42.678;23.364;2022-07-30T12:15:47;12.40;;;7.90;;
6133;SDS011;3098;42.678;23.364;2022-07-30T12:18:23;8.23;;;7.00;;
6133;SDS011;3098;42.678;23.364;2022-07-30T12:20:52;7.57;;;6.63;;
6133;SDS011;3098;42.678;23.364;2022-07-30T12:23:21;10.82;;;6.93;;
6133;SDS011;3098;42.678;23.364;2022-07-30T12:25:49;11.05;;;7.28;;
6133;SDS011;3098;42.678;23.364;2022-07-30T12:28:20;8.98;;;7.60;;
6133;SDS011;3098;42.678;23.364;2022-07-30T12:30:48;8.20;;;7.40;;
6133;SDS011;3098;42.678;23.364;2022-07-30T12:33:16;9.50;;;7.35;;
6133;SDS011;3098;42.678;23.364;2022-07-30T12:35:46;13.68;;;7.93;;
6133;SDS011;3098;42.678;23.364;2022-07-30T12:38:15;10.25;;;7.15;;
6133;SDS011;3098;42.678;23.364;2022-07-30T12:40:54;8.70;;;7.10;;
6133;SDS011;3098;42.678;23.364;2022-07-30T12:43:41;11.82;;;7.05;;
6133;SDS011;3098;42.678;23.364;2022-07-30T12:46:10;7.68;;;6.70;;
6133;SDS011;3098;42.678;23.364;2022-07-30T12:48:47;14.18;;;7.90;;
6133;SDS011;3098;42.678;23.364;2022-07-30T12:51:21;8.43;;;6.75;;
6133;SDS011;3098;42.678;23.364;2022-07-30T12:53:49;8.73;;;6.95;;
6133;SDS011;3098;42.678;23.364;2022-07-30T12:56:17;8.55;;;7.30;;
6133;SDS011;3098;42.678;23.364;2022-07-30T12:58:45;8.45;;;6.72;;
6133;SDS011;3098;42.678;23.364;2022-07-30T13:01:13;8.25;;;7.40;;
6133;SDS011;3098;42.678;23.364;2022-07-30T13:03:40;8.77;;;7.43;;
6133;SDS011;3098;42.678;23.364;2022-07-30T13:06:11;9.05;;;7.68;;
6133;SDS011;3098;42.678;23.364;2022-07-30T13:08:54;7.63;;;6.45;;
6133;SDS011;3098;42.678;23.364;2022-07-30T13:11:23;7.85;;;7.03;;
6133;SDS011;3098;42.678;23.364;2022-07-30T13:13:52;8.75;;;7.22;;
6133;SDS011;3098;42.678;23.364;2022-07-30T13:16:22;10.13;;;7.05;;
6133;SDS011;3098;42.678;23.364;2022-07-30T13:18:49;9.77;;;7.03;;
6133;SDS011;3098;42.678;23.364;2022-07-30T13:21:16;9.60;;;7.25;;
6133;SDS011;3098;42.678;23.364;2022-07-30T13:23:43;11.57;;;6.75;;
6133;SDS011;3098;42.678;23.364;2022-07-30T13:26:12;8.43;;;7.53;;
6133;SDS011;3098;42.678;23.364;2022-07-30T13:28:39;10.40;;;7.32;;
6133;SDS011;3098;42.678;23.364;2022-07-30T13:31:07;9.82;;;6.90;;
6133;SDS011;3098;42.678;23.364;2022-07-30T13:33:35;10.65;;;7.53;;
6133;SDS011;3098;42.678;23.364;2022-07-30T13:36:02;9.45;;;6.65;;
6133;SDS011;3098;42.678;23.364;2022-07-30T13:38:29;8.38;;;6.97;;
6133;SDS011;3098;42.678;23.364;2022-07-30T13:40:57;8.55;;;6.43;;
6133;SDS011;3098;42.678;23.364;2022-07-30T13:43:26;8.68;;;7.45;;
6133;SDS011;3098;42.678;23.364;2022-07-30T13:45:53;7.85;;;6.32;;
6133;SDS011;3098;42.678;23.364;2022-07-30T13:48:21;7.43;;;6.20;;
6133;SDS011;3098;42.678;23.364;2022-07-30T13:50:48;7.57;;;6.30;;
6133;SDS011;3098;42.678;23.364;2022-07-30T13:53:15;9.07;;;6.35;;
6133;SDS011;3098;42.678;23.364;2022-07-30T13:55:42;9.48;;;7.32;;
6133;SDS011;3098;42.678;23.364;2022-07-30T13:58:10;8.32;;;6.57;;
6133;SDS011;3098;42.678;23.364;2022-07-30T14:00:39;7.63;;;6.25;;
6133;SDS011;3098;42.678;23.364;2022-07-30T14:03:09;7.75;;;6.95;;
6133;SDS011;3098;42.678;23.364;2022-07-30T14:05:36;8.13;;;6.40;;
6133;SDS011;3098;42.678;23.364;2022-07-30T14:08:04;7.97;;;6.93;;
6133;SDS011;3098;42.678;23.364;2022-07-30T14:10:32;9.32;;;6.95;;
6133;SDS011;3098;42.678;23.364;2022-07-30T14:12:59;13.43;;;7.10;;
6133;SDS011;3098;42.678;23.364;2022-07-30T14:15:27;10.68;;;7.57;;
6133;SDS011;3098;42.678;23.364;2022-07-30T14:17:57;9.00;;;7.70;;
6133;SDS011;3098;42.678;23.364;2022-07-30T14:20:25;9.38;;;7.75;;
6133;SDS011;3098;42.678;23.364;2022-07-30T14:22:53;13.63;;;7.60;;
6133;SDS011;3098;42.678;23.364;2022-07-30T14:25:20;8.23;;;7.35;;
6133;SDS011;3098;42.678;23.364;2022-07-30T14:27:48;9.48;;;7.10;;
6133;SDS011;3098;42.678;23.364;2022-07-30T14:30:15;7.97;;;7.00;;
6133;SDS011;3098;42.678;23.364;2022-07-30T14:32:42;8.30;;;6.68;;
6133;SDS011;3098;42.678;23.364;2022-07-30T14:35:11;11.63;;;7.10;;
6133;SDS011;3098;42.678;23.364;2022-07-30T14:37:38;9.18;;;7.40;;
6133;SDS011;3098;42.678;23.364;2022-07-30T14:40:06;10.55;;;7.60;;
6133;SDS011;3098;42.678;23.364;2022-07-30T14:42:35;14.77;;;7.97;;
6133;SDS011;3098;42.678;23.364;2022-07-30T14:45:04;11.50;;;8.85;;
6133;SDS011;3098;42.678;23.364;2022-07-30T14:47:32;16.70;;;9.35;;
6133;SDS011;3098;42.678;23.364;2022-07-30T14:49:59;14.55;;;9.73;;
6133;SDS011;3098;42.678;23.364;2022-07-30T14:52:28;14.23;;;10.10;;
6133;SDS011;3098;42.678;23.364;2022-07-30T14:54:55;15.32;;;12.05;;
6133;SDS011;3098;42.678;23.364;2022-07-30T14:57:22;18.85;;;11.90;;
6133;SDS011;3098;42.678;23.364;2022-07-30T14:59:49;14.68;;;11.50;;
6133;SDS011;3098;42.678;23.364;2022-07-30T15:02:16;19.20;;;11.98;;
6133;SDS011;3098;42.678;23.364;2022-07-30T15:04:43;13.00;;;10.13;;
6133;SDS011;3098;42.678;23.364;2022-07-30T15:07:11;15.45;;;10.23;;
6133;SDS011;3098;42.678;23.364;2022-07-30T15:09:40;17.40;;;11.35;;
6133;SDS011;3098;42.678;23.364;2022-07-30T15:12:08;18.52;;;12.73;;
6133;SDS011;3098;42.678;23.364;2022-07-30T15:14:35;16.95;;;11.40;;
6133;SDS011;3098;42.678;23.364;2022-07-30T15:17:02;17.20;;;10.32;;
6133;SDS011;3098;42.678;23.364;2022-07-30T15:19:30;12.48;;;8.63;;
6133;SDS011;3098;42.678;23.364;2022-07-30T15:21:57;12.32;;;8.48;;